Time;durP1;ratioP1;P1;durP2;ratioP2;P2;SDS_P1;SDS_P2;PMS_P1;PMS_P2;Temp;Humidity;BMP_temperature;BMP_pressure;BME280_temperature;BME280_humidity;BME280_pressure;Samples;Min_cycle;Max_cycle;Signal;HPM_P1;HPM_P2
2022/08/29 00:00:42;;;;;;;19.38;11.63;;;15.30;99.90;;;;;;5009881;28;20511;-62
2022/08/29 00:03:07;;;;;;;20.02;11.60;;;15.30;99.90;;;;;;5010506;28;20026;-65
2022/08/29 00:05:36;;;;;;;18.30;11.02;;;15.40;99.90;;;;;;5030926;28;20762;-62
2022/08/29 00:08:03;;;;;;;16.20;10.43;;;15.30;99.90;;;;;;5027880;28;20079;-63
2022/08/29 00:10:31;;;;;;;20.80;10.77;;;15.30;99.90;;;;;;5016018;28;20056;-63
2022/08/29 00:12:56;;;;;;;21.10;11.68;;;15.20;99.90;;;;;;5009806;28;20042;-63
2022/08/29 00:15:22;;;;;;;23.30;12.65;;;15.10;99.90;;;;;;5028941;28;20108;-63
2022/08/29 00:17:49;;;;;;;20.98;12.75;;;15.10;99.90;;;;;;5030699;28;20033;-62
2022/08/29 00:20:18;;;;;;;19.98;10.82;;;15.20;99.90;;;;;;5015738;28;20450;-63
2022/08/29 00:22:45;;;;;;;20.10;10.05;;;15.20;99.90;;;;;;4992068;28;20549;-64
2022/08/29 00:25:12;;;;;;;17.02;10.15;;;15.10;99.90;;;;;;5008948;28;20053;-65
2022/08/29 00:27:38;;;;;;;18.77;9.68;;;15.10;99.90;;;;;;5018653;28;20028;-63
2022/08/29 00:30:06;;;;;;;14.32;8.82;;;15.10;99.90;;;;;;5021214;28;20038;-63
2022/08/29 00:32:33;;;;;;;16.63;8.73;;;15.00;99.90;;;;;;5009443;28;20045;-63
2022/08/29 00:35:12;;;;;;;19.27;9.02;;;14.90;99.90;;;;;;5009167;28;20045;-63
2022/08/29 00:37:39;;;;;;;13.32;8.52;;;14.90;99.90;;;;;;5010567;28;20022;-63
2022/08/29 00:40:07;;;;;;;14.60;9.32;;;14.90;99.90;;;;;;5016560;28;20034;-63
2022/08/29 00:42:34;;;;;;;18.63;8.98;;;14.90;99.90;;;;;;5008631;28;20468;-63
2022/08/29 00:45:01;;;;;;;18.27;9.82;;;14.80;99.90;;;;;;5009011;28;20044;-63
2022/08/29 00:47:32;;;;;;;16.02;9.80;;;14.70;99.90;;;;;;5028921;28;20486;-63
2022/08/29 00:50:00;;;;;;;18.75;9.93;;;14.70;99.90;;;;;;5027070;28;20031;-62
2022/08/29 00:52:45;;;;;;;19.17;10.25;;;14.70;99.90;;;;;;5028156;28;20543;-63
2022/08/29 00:55:16;;;;;;;20.67;10.15;;;14.70;99.90;;;;;;5013495;28;20461;-65
2022/08/29 00:57:44;;;;;;;20.30;10.18;;;14.70;99.90;;;;;;5010331;28;20038;-63
2022/08/29 01:00:11;;;;;;;16.63;10.18;;;14.60;99.90;;;;;;5016816;28;20472;-66
2022/08/29 01:02:40;;;;;;;19.17;9.18;;;14.60;99.90;;;;;;5009549;28;20086;-63
2022/08/29 01:05:11;;;;;;;17.52;9.57;;;14.60;99.90;;;;;;5008947;28;20044;-63
2022/08/29 01:07:38;;;;;;;18.02;10.52;;;14.60;99.90;;;;;;4992182;28;20022;-63
2022/08/29 01:10:07;;;;;;;15.40;9.38;;;14.60;99.90;;;;;;5015185;28;20038;-64
2022/08/29 01:12:35;;;;;;;17.83;10.13;;;14.60;99.90;;;;;;5009015;28;20040;-63
2022/08/29 01:15:07;;;;;;;17.65;9.98;;;14.60;99.90;;;;;;5008838;28;20053;-63
2022/08/29 01:17:39;;;;;;;17.55;10.68;;;14.60;99.90;;;;;;5008999;28;20901;-65
2022/08/29 01:20:13;;;;;;;16.13;9.80;;;14.70;99.90;;;;;;5007420;28;20076;-63
2022/08/29 01:22:49;;;;;;;19.77;10.15;;;14.60;99.90;;;;;;5017907;28;20476;-63
2022/08/29 01:25:21;;;;;;;23.45;9.30;;;14.50;99.90;;;;;;5015780;28;20034;-63
2022/08/29 01:27:53;;;;;;;26.42;8.25;;;14.50;99.90;;;;;;4990952;28;20489;-63
2022/08/29 01:30:19;;;;;;;42.85;7.38;;;14.40;99.90;;;;;;5008738;28;20021;-63
2022/08/29 01:32:45;;;;;;;61.05;8.43;;;14.40;99.90;;;;;;5009190;28;20162;-63
2022/08/29 01:35:11;;;;;;;20.05;7.63;;;14.30;99.90;;;;;;5009353;28;20441;-62
2022/08/29 01:37:40;;;;;;;14.70;7.85;;;14.40;99.90;;;;;;5016636;28;20071;-62
2022/08/29 01:40:06;;;;;;;15.48;7.53;;;14.40;99.90;;;;;;5020544;28;20033;-62
2022/08/29 01:42:32;;;;;;;18.08;8.85;;;14.20;99.90;;;;;;5028654;28;20041;-63
2022/08/29 01:44:59;;;;;;;17.45;8.88;;;14.20;99.90;;;;;;5022557;28;20431;-63
2022/08/29 01:47:31;;;;;;;15.43;8.57;;;14.20;99.90;;;;;;5009036;28;20110;-63
2022/08/29 01:49:56;;;;;;;13.20;7.95;;;14.10;99.90;;;;;;5007961;28;20030;-63
2022/08/29 01:52:22;;;;;;;15.82;7.57;;;14.10;99.90;;;;;;4989615;28;20034;-62
2022/08/29 01:54:48;;;;;;;12.25;7.85;;;14.00;99.90;;;;;;5016440;28;20033;-63
2022/08/29 01:57:15;;;;;;;15.40;8.95;;;14.00;99.90;;;;;;5028702;28;20036;-65
2022/08/29 01:59:42;;;;;;;16.60;9.77;;;14.00;99.90;;;;;;5017750;28;20471;-63
2022/08/29 02:02:26;;;;;;;16.60;9.25;;;14.00;99.90;;;;;;5009823;28;20041;-63
2022/08/29 02:04:52;;;;;;;12.10;8.00;;;13.90;99.90;;;;;;5020261;28;20183;-62
2022/08/29 02:07:20;;;;;;;17.08;8.88;;;13.90;99.90;;;;;;5032277;28;20017;-63
2022/08/29 02:09:46;;;;;;;17.63;8.52;;;13.90;99.90;;;;;;5011512;28;20038;-63
2022/08/29 02:12:13;;;;;;;12.90;8.13;;;13.80;99.90;;;;;;5011934;28;20040;-62
2022/08/29 02:14:39;;;;;;;16.80;8.00;;;13.90;99.90;;;;;;5011289;28;20046;-63
2022/08/29 02:17:07;;;;;;;15.32;8.60;;;13.90;99.90;;;;;;5010876;28;20112;-62
2022/08/29 02:19:37;;;;;;;29.33;8.52;;;13.90;99.90;;;;;;5010255;28;20050;-61
2022/08/29 02:22:04;;;;;;;56.45;7.18;;;13.90;99.90;;;;;;5000078;28;20038;-62
2022/08/29 02:24:29;;;;;;;150.15;9.13;;;13.90;99.90;;;;;;5007112;28;20049;-62
2022/08/29 02:26:56;;;;;;;15.40;8.15;;;13.80;99.90;;;;;;5013556;28;20030;-63
2022/08/29 02:29:23;;;;;;;14.07;8.48;;;13.80;99.90;;;;;;5016572;28;20412;-64
2022/08/29 02:31:49;;;;;;;21.58;9.00;;;13.70;99.90;;;;;;5023588;28;20562;-61
2022/08/29 02:34:15;;;;;;;14.88;9.13;;;13.60;99.90;;;;;;5026469;28;20092;-66
2022/08/29 02:36:41;;;;;;;13.55;8.40;;;13.50;99.90;;;;;;5012631;28;20033;-63
2022/08/29 02:39:06;;;;;;;11.75;7.55;;;13.50;99.90;;;;;;5029080;28;20051;-63
2022/08/29 02:41:32;;;;;;;11.50;7.90;;;13.50;99.90;;;;;;5031589;28;20040;-63
2022/08/29 02:43:58;;;;;;;13.15;7.97;;;13.50;99.90;;;;;;5025465;28;20169;-64
2022/08/29 02:46:24;;;;;;;14.98;8.50;;;13.50;99.90;;;;;;5009982;28;20101;-65
2022/08/29 02:48:50;;;;;;;16.67;8.23;;;13.50;99.90;;;;;;5026954;28;20116;-62
2022/08/29 02:51:22;;;;;;;11.32;8.10;;;13.50;99.90;;;;;;5016469;28;20060;-63
2022/08/29 02:53:48;;;;;;;14.90;8.00;;;13.60;99.90;;;;;;5011902;28;20034;-63
2022/08/29 02:56:14;;;;;;;14.00;7.72;;;13.60;99.90;;;;;;5011433;28;20038;-62
2022/08/29 02:58:40;;;;;;;12.85;8.50;;;13.60;99.90;;;;;;5010394;28;20049;-63
2022/08/29 03:01:06;;;;;;;14.55;7.82;;;13.50;99.90;;;;;;5006665;28;20041;-63
2022/08/29 03:03:32;;;;;;;13.32;7.60;;;13.40;99.90;;;;;;5004585;28;20496;-63
2022/08/29 03:05:58;;;;;;;14.57;8.60;;;13.50;99.90;;;;;;5012236;28;20041;-62
2022/08/29 03:08:24;;;;;;;17.83;7.72;;;13.40;99.90;;;;;;5010409;28;20068;-62
2022/08/29 03:10:49;;;;;;;11.75;8.15;;;13.40;99.90;;;;;;5009788;28;20036;-61
2022/08/29 03:13:17;;;;;;;14.00;8.10;;;13.40;99.90;;;;;;5010421;28;20042;-63
2022/08/29 03:15:42;;;;;;;61.17;8.93;;;13.40;99.90;;;;;;5010363;28;20034;-62
2022/08/29 03:18:08;;;;;;;31.90;8.52;;;13.40;99.90;;;;;;5012026;28;20354;-63
2022/08/29 03:20:36;;;;;;;13.27;8.32;;;13.40;99.90;;;;;;5011064;28;20037;-64
2022/08/29 03:23:03;;;;;;;13.75;8.15;;;13.40;99.90;;;;;;5012000;28;20038;-62
2022/08/29 03:25:29;;;;;;;31.75;8.50;;;13.40;99.90;;;;;;5010603;28;20604;-62
2022/08/29 03:27:55;;;;;;;13.15;8.43;;;13.30;99.90;;;;;;5011944;28;20041;-62
2022/08/29 03:30:21;;;;;;;14.98;8.05;;;13.30;99.90;;;;;;5011103;28;20473;-64
2022/08/29 03:32:47;;;;;;;18.83;8.95;;;13.30;99.90;;;;;;5011677;28;20120;-61
2022/08/29 03:35:13;;;;;;;22.77;9.18;;;13.30;99.90;;;;;;5011367;28;20022;-62
2022/08/29 03:37:39;;;;;;;16.90;9.18;;;13.30;99.90;;;;;;5010959;28;20221;-62
2022/08/29 03:40:08;;;;;;;11.77;7.88;;;13.30;99.90;;;;;;4996652;28;20460;-63
2022/08/29 03:42:34;;;;;;;13.93;9.07;;;13.20;99.90;;;;;;5009661;28;20034;-62
2022/08/29 03:45:07;;;;;;;13.40;8.50;;;13.20;99.90;;;;;;5011419;28;20030;-63
2022/08/29 03:47:33;;;;;;;13.48;7.80;;;13.20;99.90;;;;;;5010458;28;20412;-62
2022/08/29 03:49:59;;;;;;;13.23;7.95;;;13.30;99.90;;;;;;5011429;28;20120;-62
2022/08/29 03:52:25;;;;;;;56.90;8.48;;;13.30;99.90;;;;;;5010385;28;20049;-63
2022/08/29 03:54:51;;;;;;;20.92;8.30;;;13.40;99.90;;;;;;5011114;28;20045;-63
2022/08/29 03:57:17;;;;;;;13.35;8.45;;;13.40;99.90;;;;;;5010356;28;20034;-62
2022/08/29 03:59:43;;;;;;;12.63;7.72;;;13.30;99.90;;;;;;5010495;28;20471;-63
2022/08/29 04:02:09;;;;;;;11.52;7.82;;;13.30;99.90;;;;;;5011064;28;20076;-62
2022/08/29 04:07:18;;;;;;;11.52;7.57;;;13.30;99.90;;;;;;5010908;28;20037;-63
2022/08/29 04:09:44;;;;;;;12.95;7.75;;;13.30;99.90;;;;;;5009258;28;20035;-63
2022/08/29 04:12:12;;;;;;;11.48;7.75;;;13.30;99.90;;;;;;5011013;28;20353;-62
2022/08/29 04:14:39;;;;;;;10.70;7.82;;;13.10;99.90;;;;;;5009768;28;20026;-62
2022/08/29 04:17:05;;;;;;;11.25;7.15;;;13.00;99.90;;;;;;5010859;28;20390;-62
2022/08/29 04:19:32;;;;;;;13.93;8.20;;;13.00;99.90;;;;;;5010007;28;20112;-62
2022/08/29 04:21:57;;;;;;;17.17;7.68;;;13.10;99.90;;;;;;5010848;28;20475;-62
2022/08/29 04:24:24;;;;;;;24.70;7.63;;;13.00;99.90;;;;;;5010264;28;20097;-64
2022/08/29 04:26:50;;;;;;;12.63;7.63;;;13.00;99.90;;;;;;5009991;28;20037;-62
2022/08/29 04:29:15;;;;;;;12.68;7.35;;;13.10;99.90;;;;;;5010902;28;20030;-62
2022/08/29 04:31:42;;;;;;;107.45;8.63;;;13.10;99.90;;;;;;5009643;28;20030;-62
2022/08/29 04:34:10;;;;;;;13.25;6.80;;;13.00;99.90;;;;;;5010665;28;20030;-62
2022/08/29 04:36:40;;;;;;;20.60;6.78;;;13.10;99.90;;;;;;5009779;28;20075;-62
2022/08/29 04:39:06;;;;;;;139.18;9.45;;;13.10;99.90;;;;;;5010441;28;20041;-62
2022/08/29 04:41:32;;;;;;;102.90;7.68;;;13.10;99.90;;;;;;5008471;28;20038;-62
2022/08/29 04:43:58;;;;;;;317.58;10.20;;;13.10;99.90;;;;;;5010219;28;20030;-63
2022/08/29 04:46:24;;;;;;;74.13;6.70;;;13.10;99.90;;;;;;5009782;28;20048;-64
2022/08/29 04:48:49;;;;;;;54.30;6.97;;;13.10;99.90;;;;;;5009743;28;20484;-63
2022/08/29 04:51:15;;;;;;;68.00;7.07;;;13.10;99.90;;;;;;5010185;28;20042;-63
2022/08/29 04:53:41;;;;;;;10.20;5.75;;;13.10;99.90;;;;;;5009291;28;20057;-63
2022/08/29 04:56:09;;;;;;;28.95;5.90;;;13.00;99.90;;;;;;5007781;28;20030;-64
2022/08/29 04:58:37;;;;;;;8.38;5.72;;;13.10;99.90;;;;;;5004817;28;20034;-61
2022/08/29 05:01:04;;;;;;;10.95;6.57;;;13.10;99.90;;;;;;5015231;28;20049;-63
2022/08/29 05:03:31;;;;;;;11.90;6.22;;;13.10;99.90;;;;;;5016131;28;20503;-63
2022/08/29 05:06:00;;;;;;;9.30;6.70;;;13.00;99.90;;;;;;5009626;28;20434;-62
2022/08/29 05:08:27;;;;;;;10.43;5.03;;;13.00;99.90;;;;;;5009113;28;20378;-64
2022/08/29 05:10:52;;;;;;;12.65;6.78;;;13.00;99.90;;;;;;5007856;28;20033;-62
2022/08/29 05:13:18;;;;;;;9.70;6.28;;;13.10;99.90;;;;;;5006640;28;20045;-63
2022/08/29 05:15:44;;;;;;;10.90;7.50;;;13.00;99.90;;;;;;5009294;28;20726;-62
2022/08/29 05:18:12;;;;;;;19.63;7.30;;;13.00;99.90;;;;;;5009580;28;20033;-62
2022/08/29 05:20:41;;;;;;;16.35;7.68;;;13.00;99.90;;;;;;5006295;28;20029;-62
2022/08/29 05:23:07;;;;;;;14.83;7.00;;;13.00;99.90;;;;;;5009627;28;20029;-62
2022/08/29 05:25:33;;;;;;;13.32;7.38;;;13.10;99.90;;;;;;5009375;28;20501;-62
2022/08/29 05:27:59;;;;;;;17.70;8.05;;;13.20;99.90;;;;;;5009609;28;20073;-62
2022/08/29 05:30:25;;;;;;;13.68;7.82;;;13.30;99.90;;;;;;5009410;28;20026;-64
2022/08/29 05:32:51;;;;;;;13.95;7.32;;;13.40;99.90;;;;;;5008805;28;20062;-61
2022/08/29 05:35:17;;;;;;;11.15;7.03;;;13.40;99.90;;;;;;5008589;28;20392;-62
2022/08/29 05:37:43;;;;;;;12.75;7.35;;;13.40;99.90;;;;;;5007805;28;20109;-63
2022/08/29 05:40:09;;;;;;;45.30;7.47;;;13.50;99.90;;;;;;5014598;28;20108;-62
2022/08/29 05:42:34;;;;;;;212.90;9.95;;;13.60;99.90;;;;;;5013671;28;20395;-62
2022/08/29 05:45:03;;;;;;;267.02;10.63;;;13.60;99.90;;;;;;5011271;28;20320;-63
2022/08/29 05:47:30;;;;;;;445.85;15.10;;;13.60;99.90;;;;;;5014201;28;20026;-63
2022/08/29 05:49:56;;;;;;;641.25;17.50;;;13.60;99.90;;;;;;5013896;28;20103;-62
2022/08/29 05:52:22;;;;;;;193.68;8.95;;;13.60;99.90;;;;;;5013056;28;20117;-62
2022/08/29 05:54:48;;;;;;;223.77;9.73;;;13.60;99.90;;;;;;5014283;28;20025;-62
2022/08/29 05:57:17;;;;;;;11.38;6.45;;;13.70;99.90;;;;;;5015603;28;20092;-63
2022/08/29 05:59:43;;;;;;;12.07;6.10;;;13.80;99.90;;;;;;5013769;28;20033;-61
2022/08/29 06:02:10;;;;;;;13.88;6.18;;;13.80;99.90;;;;;;5009428;28;20030;-62
2022/08/29 06:04:37;;;;;;;10.23;6.85;;;13.90;99.90;;;;;;5013592;28;20065;-62
2022/08/29 06:07:04;;;;;;;9.43;6.00;;;13.90;99.90;;;;;;5014987;28;20033;-62
2022/08/29 06:09:30;;;;;;;9.45;5.90;;;14.00;99.90;;;;;;5015249;28;20038;-64
2022/08/29 06:11:57;;;;;;;9.15;5.95;;;14.10;99.90;;;;;;5014314;28;20037;-62
2022/08/29 06:14:23;;;;;;;10.20;6.40;;;14.20;99.90;;;;;;5015981;28;20037;-62
2022/08/29 06:16:50;;;;;;;11.52;6.75;;;14.30;99.90;;;;;;5015203;28;20041;-62
2022/08/29 06:19:16;;;;;;;9.65;6.57;;;14.50;99.90;;;;;;5015687;28;20033;-62
2022/08/29 06:21:42;;;;;;;9.48;6.55;;;14.60;99.90;;;;;;5015097;28;20034;-62
2022/08/29 06:24:07;;;;;;;15.10;6.88;;;14.80;99.90;;;;;;5015743;28;20026;-62
2022/08/29 06:26:34;;;;;;;9.30;6.53;;;15.00;99.90;;;;;;5014091;28;20014;-61
2022/08/29 06:29:04;;;;;;;10.82;7.22;;;15.10;99.90;;;;;;5015723;28;20033;-61
2022/08/29 06:31:29;;;;;;;10.52;6.85;;;15.30;99.90;;;;;;5015489;28;20041;-65
2022/08/29 06:34:00;;;;;;;12.25;6.90;;;15.30;99.90;;;;;;5014923;28;20057;-62
2022/08/29 06:36:27;;;;;;;11.50;7.75;;;15.50;99.90;;;;;;5014826;28;20076;-61
2022/08/29 06:38:58;;;;;;;12.48;8.00;;;15.70;99.90;;;;;;5014313;28;20496;-62
2022/08/29 06:41:24;;;;;;;14.30;8.32;;;15.90;99.90;;;;;;5015760;28;20025;-62
2022/08/29 06:43:50;;;;;;;11.27;7.95;;;16.00;99.90;;;;;;5014840;28;20036;-62
2022/08/29 06:46:25;;;;;;;21.88;8.98;;;16.10;99.90;;;;;;5015665;28;20369;-62
2022/08/29 06:48:51;;;;;;;13.15;8.93;;;16.30;99.90;;;;;;5014586;28;20576;-63
2022/08/29 06:51:17;;;;;;;15.80;9.90;;;16.30;99.90;;;;;;5012984;28;20109;-62
2022/08/29 06:53:43;;;;;;;15.63;10.35;;;16.50;99.90;;;;;;5006176;28;20524;-61
2022/08/29 06:56:09;;;;;;;17.70;10.35;;;16.70;99.90;;;;;;5009458;28;20225;-62
2022/08/29 06:58:35;;;;;;;17.33;9.45;;;16.90;99.90;;;;;;5027742;28;20127;-62
2022/08/29 07:01:09;;;;;;;18.10;10.73;;;17.10;99.90;;;;;;5011161;28;20049;-62
2022/08/29 07:03:35;;;;;;;18.15;10.50;;;17.20;99.90;;;;;;5007237;28;20756;-63
2022/08/29 07:06:01;;;;;;;19.70;11.32;;;17.30;99.90;;;;;;5008691;28;20029;-62
2022/08/29 07:08:27;;;;;;;20.77;12.50;;;17.40;99.90;;;;;;5006884;28;20079;-62
2022/08/29 07:10:52;;;;;;;21.40;12.55;;;17.50;99.90;;;;;;5006775;28;20636;-62
2022/08/29 07:13:18;;;;;;;23.10;12.07;;;17.60;99.90;;;;;;5010839;28;20030;-61
2022/08/29 07:15:44;;;;;;;21.65;12.30;;;17.80;99.90;;;;;;5008838;28;20400;-63
2022/08/29 07:18:09;;;;;;;20.80;12.68;;;18.00;99.90;;;;;;5012045;28;20531;-63
2022/08/29 07:20:38;;;;;;;22.23;13.05;;;18.10;99.90;;;;;;5011127;28;20899;-63
2022/08/29 07:23:05;;;;;;;20.30;12.02;;;18.30;99.90;;;;;;5011781;28;20037;-63
2022/08/29 07:25:31;;;;;;;28.05;13.93;;;18.50;99.90;;;;;;5010908;28;20038;-61
2022/08/29 07:27:57;;;;;;;22.30;13.23;;;18.60;99.90;;;;;;5010583;28;20033;-63
2022/08/29 07:30:23;;;;;;;23.25;13.15;;;18.60;99.90;;;;;;5011475;28;20490;-63
2022/08/29 07:32:49;;;;;;;21.33;12.80;;;18.70;99.90;;;;;;5010853;28;20061;-63
2022/08/29 07:35:16;;;;;;;20.17;11.75;;;18.90;99.90;;;;;;5011667;28;20392;-63
2022/08/29 07:37:42;;;;;;;20.38;12.00;;;18.90;99.90;;;;;;5010996;28;20033;-62
2022/08/29 07:40:10;;;;;;;21.58;12.60;;;19.00;99.90;;;;;;5011573;28;20034;-63
2022/08/29 07:42:36;;;;;;;23.02;12.73;;;19.20;99.90;;;;;;5009970;28;20678;-62
2022/08/29 07:45:03;;;;;;;22.30;12.80;;;19.30;99.90;;;;;;5011645;28;20022;-62
2022/08/29 07:47:29;;;;;;;22.73;11.52;;;19.40;99.90;;;;;;5011333;28;20072;-63
2022/08/29 07:49:55;;;;;;;22.52;13.00;;;19.50;99.90;;;;;;5010749;28;20299;-63
2022/08/29 07:52:21;;;;;;;20.33;11.38;;;19.60;99.90;;;;;;5011418;28;20034;-63
2022/08/29 07:54:46;;;;;;;22.50;11.95;;;19.80;99.90;;;;;;5010525;28;20453;-63
2022/08/29 07:57:16;;;;;;;18.10;11.20;;;20.00;99.90;;;;;;5010292;28;20108;-60
2022/08/29 07:59:42;;;;;;;25.38;11.77;;;20.20;99.90;;;;;;5010515;28;20069;-63
2022/08/29 08:02:08;;;;;;;18.30;10.30;;;20.40;99.90;;;;;;5010817;28;20118;-61
2022/08/29 08:04:33;;;;;;;18.60;11.23;;;20.60;99.90;;;;;;5011165;28;20501;-63
2022/08/29 08:06:59;;;;;;;18.27;11.63;;;20.70;99.90;;;;;;5010715;28;20030;-62
2022/08/29 08:09:25;;;;;;;24.98;11.75;;;20.80;99.90;;;;;;5011111;28;20034;-64
2022/08/29 08:11:52;;;;;;;20.63;10.80;;;21.00;99.90;;;;;;5009137;28;20065;-62
2022/08/29 08:14:18;;;;;;;19.52;11.73;;;21.00;99.90;;;;;;5010902;28;20044;-63
2022/08/29 08:16:44;;;;;;;16.13;10.52;;;21.20;99.90;;;;;;5010052;28;20664;-61
2022/08/29 08:19:09;;;;;;;23.08;11.07;;;21.20;99.90;;;;;;5010938;28;20037;-63
2022/08/29 08:21:35;;;;;;;17.75;10.57;;;21.40;99.90;;;;;;5010664;28;20041;-64
2022/08/29 08:24:02;;;;;;;19.02;11.07;;;21.50;99.90;;;;;;4992880;28;20088;-63
2022/08/29 08:26:27;;;;;;;22.55;10.60;;;21.60;99.90;;;;;;5009864;28;20076;-61
2022/08/29 08:28:54;;;;;;;16.10;10.43;;;21.70;99.90;;;;;;5010006;28;20037;-63
2022/08/29 08:31:21;;;;;;;17.05;10.13;;;21.90;99.90;;;;;;4992897;28;20034;-63
2022/08/29 08:33:47;;;;;;;15.90;9.77;;;22.10;99.90;;;;;;5009324;28;20107;-63
2022/08/29 08:36:12;;;;;;;17.20;9.15;;;22.10;99.90;;;;;;5010648;28;20026;-62
2022/08/29 08:38:38;;;;;;;20.00;9.45;;;22.20;99.90;;;;;;5010086;28;20447;-62
2022/08/29 08:41:16;;;;;;;19.60;9.45;;;22.40;99.90;;;;;;5009241;28;20065;-61
2022/08/29 08:43:47;;;;;;;17.65;8.43;;;22.70;99.90;;;;;;5009681;28;20030;-61
2022/08/29 08:46:13;;;;;;;20.23;9.32;;;22.70;99.90;;;;;;5010538;28;20101;-63
2022/08/29 08:48:39;;;;;;;17.52;9.05;;;22.60;99.90;;;;;;5009818;28;20144;-64
2022/08/29 08:51:18;;;;;;;12.15;7.95;;;22.70;99.90;;;;;;5010047;28;20027;-62
2022/08/29 08:53:49;;;;;;;14.48;7.68;;;22.90;99.90;;;;;;5009289;28;20029;-63
2022/08/29 08:56:27;;;;;;;;;;;23.00;99.90;;;;;;5009828;28;20064;-64
2022/08/29 08:58:54;;;;;;;14.18;8.20;;;23.00;99.90;;;;;;5007917;28;20004;-64
2022/08/29 09:01:23;;;;;;;15.65;8.43;;;23.00;99.90;;;;;;5009537;28;20042;-62
2022/08/29 09:04:26;;;;;;;11.80;8.02;;;23.00;99.90;;;;;;5008094;28;20440;-63
2022/08/29 09:07:04;;;;;;;15.88;8.25;;;23.20;99.90;;;;;;4989734;28;20036;-63
2022/08/29 09:09:48;;;;;;;15.68;7.40;;;23.30;99.90;;;;;;5000199;28;20109;-63
2022/08/29 09:12:31;;;;;;;10.73;7.15;;;23.40;99.90;;;;;;5009998;28;20092;-63
2022/08/29 09:15:15;;;;;;;12.23;6.95;;;23.50;99.90;;;;;;5008443;28;20061;-63
2022/08/29 09:18:00;;;;;;;11.93;6.65;;;23.80;99.90;;;;;;5009734;28;20049;-62
2022/08/29 09:20:33;;;;;;;12.88;7.10;;;23.90;99.90;;;;;;5009953;28;20038;-63
2022/08/29 09:23:02;;;;;;;16.33;7.47;;;24.00;99.90;;;;;;5008281;28;20117;-64
2022/08/29 09:25:29;;;;;;;15.88;7.43;;;23.90;99.90;;;;;;5008123;28;20495;-61
2022/08/29 09:27:58;;;;;;;13.63;7.38;;;23.90;99.90;;;;;;5008980;28;20415;-64
2022/08/29 09:30:27;;;;;;;18.33;8.40;;;23.90;99.90;;;;;;5009622;28;20147;-63
2022/08/29 09:32:53;;;;;;;11.17;6.87;;;24.00;99.90;;;;;;5008706;28;20058;-63
2022/08/29 09:35:39;;;;;;;12.07;7.10;;;24.00;99.90;;;;;;5009532;28;20128;-63
2022/08/29 09:38:07;;;;;;;11.48;6.97;;;24.10;99.90;;;;;;5009014;28;20120;-62
2022/08/29 09:40:50;;;;;;;13.57;6.72;;;24.10;99.90;;;;;;5008721;28;20053;-63
2022/08/29 09:43:23;;;;;;;12.05;6.80;;;24.40;99.90;;;;;;5009004;28;20472;-63
2022/08/29 09:46:25;;;;;;;11.07;6.55;;;24.50;99.90;;;;;;5008245;28;20686;-61
2022/08/29 09:48:52;;;;;;;12.93;6.90;;;24.40;99.90;;;;;;4947798;29;20023;-63
2022/08/29 09:51:33;;;;;;;10.27;6.20;;;24.50;99.90;;;;;;4997605;28;20050;-63
2022/08/29 09:54:27;;;;;;;14.43;6.35;;;24.50;99.90;;;;;;5008660;28;20038;-65
2022/08/29 09:57:01;;;;;;;13.75;6.07;;;24.60;99.90;;;;;;5008259;28;20033;-65
2022/08/29 09:59:39;;;;;;;13.18;6.47;;;24.90;99.90;;;;;;4989710;28;20030;-63
2022/08/29 10:02:28;;;;;;;9.63;6.13;;;25.10;99.90;;;;;;4994907;28;20045;-62
2022/08/29 10:04:54;;;;;;;11.48;6.00;;;25.40;99.90;;;;;;5006869;28;20165;-64
2022/08/29 10:07:34;;;;;;;10.20;6.03;;;25.20;99.90;;;;;;5005270;28;20100;-63
2022/08/29 10:10:06;;;;;;;;;;;25.20;99.90;;;;;;4989421;28;20037;-61
2022/08/29 10:13:07;;;;;;;9.60;5.97;;;25.20;99.90;;;;;;5000976;28;19942;-65
2022/08/29 10:15:51;;;;;;;9.05;6.18;;;25.40;99.90;;;;;;5008440;28;20073;-63
2022/08/29 10:18:31;;;;;;;11.40;6.93;;;25.60;99.90;;;;;;5009348;28;20026;-63
2022/08/29 10:21:34;;;;;;;12.57;6.68;;;25.60;99.90;;;;;;5005350;28;20053;-63
2022/08/29 10:24:15;;;;;;;10.93;6.85;;;26.00;99.90;;;;;;5005583;28;20034;-63
2022/08/29 10:26:40;;;;;;;15.90;6.53;;;25.90;99.90;;;;;;4993451;28;20033;-64
2022/08/29 10:29:17;;;;;;;12.38;6.35;;;25.90;99.90;;;;;;5010254;28;20033;-63
2022/08/29 10:31:51;;;;;;;10.75;6.07;;;25.90;99.90;;;;;;5007892;28;20073;-66
2022/08/29 10:34:33;;;;;;;11.45;5.90;;;26.00;99.90;;;;;;5006781;28;20066;-63
2022/08/29 10:37:14;;;;;;;15.43;6.70;;;26.50;98.80;;;;;;5013825;28;20404;-63
2022/08/29 10:40:02;;;;;;;13.57;5.75;;;26.60;98.20;;;;;;5000682;28;20069;-63
2022/08/29 10:42:30;;;;;;;9.05;5.38;;;26.50;96.20;;;;;;5012702;28;20105;-60
2022/08/29 10:45:09;;;;;;;7.32;5.05;;;26.40;94.70;;;;;;5011475;28;20045;-63
2022/08/29 10:47:49;;;;;;;10.50;5.60;;;26.70;95.40;;;;;;5012586;28;20121;-63
2022/08/29 10:50:40;;;;;;;12.30;5.50;;;27.00;93.00;;;;;;5009609;28;20030;-63
2022/08/29 10:53:20;;;;;;;;;;;26.90;93.90;;;;;;5015605;28;20507;-62
2022/08/29 10:56:08;;;;;;;8.68;5.78;;;26.80;95.10;;;;;;5031187;28;19913;-66
2022/08/29 10:58:49;;;;;;;10.80;5.60;;;27.20;95.70;;;;;;5007241;28;20034;-62
2022/08/29 11:01:37;;;;;;;9.25;5.75;;;27.30;95.70;;;;;;5006962;28;20033;-63
2022/08/29 11:04:06;;;;;;;10.63;6.32;;;27.70;94.70;;;;;;5008566;28;20033;-60
2022/08/29 11:06:48;;;;;;;12.00;5.60;;;27.80;94.70;;;;;;5010597;28;20033;-62
2022/08/29 11:09:19;;;;;;;9.23;5.70;;;28.00;96.00;;;;;;5008420;28;20030;-65
2022/08/29 11:12:13;;;;;;;9.63;6.00;;;28.20;93.50;;;;;;5007447;28;20029;-65
2022/08/29 11:14:58;;;;;;;9.98;5.30;;;28.20;94.00;;;;;;4963628;28;20057;-62
2022/08/29 11:17:29;;;;;;;9.88;5.95;;;27.90;92.60;;;;;;5009943;28;20034;-63
2022/08/29 11:20:03;;;;;;;12.80;5.90;;;27.70;95.90;;;;;;5007044;28;20030;-63
2022/08/29 11:22:44;;;;;;;8.23;5.45;;;27.90;97.50;;;;;;5009776;28;20543;-61
2022/08/29 11:25:14;;;;;;;14.65;5.50;;;28.00;91.70;;;;;;5008105;28;20033;-66
2022/08/29 11:28:03;;;;;;;7.32;5.28;;;28.20;93.60;;;;;;5006269;28;20042;-62
2022/08/29 11:31:02;;;;;;;9.20;5.68;;;28.20;91.00;;;;;;5008517;28;20033;-63
2022/08/29 11:34:20;;;;;;;7.90;5.18;;;28.00;90.60;;;;;;5009338;28;20057;-63
2022/08/29 11:37:17;;;;;;;10.90;5.95;;;28.10;90.80;;;;;;5002924;28;20040;-64
2022/08/29 11:39:55;;;;;;;10.13;6.20;;;28.20;89.80;;;;;;5010812;28;20065;-63
2022/08/29 11:42:26;;;;;;;9.65;5.35;;;28.10;88.20;;;;;;5010889;28;20125;-63
2022/08/29 11:44:56;;;;;;;8.35;5.30;;;28.00;90.30;;;;;;5010704;28;20116;-63
2022/08/29 11:47:43;;;;;;;9.52;5.78;;;28.00;88.40;;;;;;5011750;28;20025;-61
2022/08/29 11:50:14;;;;;;;11.38;6.20;;;27.90;85.20;;;;;;5010351;28;20515;-61
2022/08/29 11:53:11;;;;;;;8.18;5.72;;;27.60;88.20;;;;;;5011223;28;20092;-63
2022/08/29 11:55:39;;;;;;;10.82;5.47;;;27.70;89.70;;;;;;5011388;28;20076;-62
2022/08/29 11:58:14;;;;;;;9.52;5.60;;;28.00;90.70;;;;;;5007985;28;20030;-63
2022/08/29 12:00:46;;;;;;;9.45;6.00;;;28.00;91.60;;;;;;5009579;28;20095;-62
2022/08/29 12:03:34;;;;;;;7.85;5.30;;;28.00;88.60;;;;;;4999887;28;20037;-63
2022/08/29 12:06:15;;;;;;;9.52;5.78;;;28.20;87.70;;;;;;5009303;28;20049;-62
2022/08/29 12:09:16;;;;;;;10.13;6.15;;;28.40;90.50;;;;;;5001934;28;20034;-62
2022/08/29 12:12:01;;;;;;;10.23;5.70;;;28.10;89.80;;;;;;4997553;28;20041;-64
2022/08/29 12:14:29;;;;;;;12.40;5.10;;;28.30;86.00;;;;;;5002797;28;20101;-63
2022/08/29 12:16:55;;;;;;;11.38;6.57;;;28.20;82.90;;;;;;5009167;28;20029;-64
2022/08/29 12:19:52;;;;;;;14.07;6.22;;;27.60;87.00;;;;;;5008081;28;20049;-62
2022/08/29 12:22:42;;;;;;;10.77;6.57;;;26.70;89.60;;;;;;5008837;28;20030;-62
2022/08/29 12:25:26;;;;;;;12.32;6.43;;;26.20;90.40;;;;;;5007555;28;20128;-63
2022/08/29 12:28:13;;;;;;;9.65;5.72;;;25.90;90.80;;;;;;5006437;28;20088;-62
2022/08/29 12:30:41;;;;;;;9.77;6.13;;;26.20;90.90;;;;;;4999747;28;20034;-62
2022/08/29 12:33:19;;;;;;;9.27;5.60;;;26.90;91.50;;;;;;5008773;28;20140;-62
2022/08/29 12:36:25;;;;;;;8.52;5.60;;;27.50;89.40;;;;;;5009625;28;20157;-63
2022/08/29 12:38:53;;;;;;;9.10;5.70;;;27.80;85.50;;;;;;4970778;28;20496;-66
2022/08/29 12:41:22;;;;;;;14.45;5.75;;;28.10;87.90;;;;;;5010556;28;20029;-64
2022/08/29 12:43:53;;;;;;;11.35;6.10;;;28.00;86.80;;;;;;5008291;28;20030;-62
2022/08/29 12:46:27;;;;;;;8.75;5.47;;;28.10;86.00;;;;;;5008383;28;20037;-63
2022/08/29 12:49:12;;;;;;;9.63;5.65;;;28.20;84.90;;;;;;5007674;28;20065;-62
2022/08/29 12:51:41;;;;;;;8.20;5.78;;;27.90;80.80;;;;;;4999637;28;20026;-61
2022/08/29 12:54:09;;;;;;;7.43;5.40;;;27.80;84.80;;;;;;5006943;28;20034;-63
2022/08/29 12:56:41;;;;;;;13.23;5.60;;;27.40;81.90;;;;;;5008430;28;20021;-63